Time;durP1;ratioP1;P1;durP2;ratioP2;P2;SDS_P1;SDS_P2;PMS_P1;PMS_P2;Temp;Humidity;BMP_temperature;BMP_pressure;BME280_temperature;BME280_humidity;BME280_pressure;Samples;Min_cycle;Max_cycle;Signal;HPM_P1;HPM_P2
2023/08/12 00:01:51;;;;;;;3.13;1.08;;;18.30;99.90;;;;;;5068247;28;20131;-67
2023/08/12 00:04:17;;;;;;;2.00;1.05;;;18.30;99.90;;;;;;5031171;28;20034;-67
2023/08/12 00:06:43;;;;;;;1.85;0.75;;;18.40;99.90;;;;;;5029407;28;20045;-67
2023/08/12 00:09:11;;;;;;;4.45;0.88;;;18.30;99.90;;;;;;5012179;28;20108;-66
2023/08/12 00:11:38;;;;;;;2.25;1.00;;;18.30;99.90;;;;;;5030186;28;20064;-67
2023/08/12 00:14:04;;;;;;;3.75;0.80;;;18.30;99.90;;;;;;5047777;28;20056;-67
2023/08/12 00:16:30;;;;;;;2.30;1.17;;;18.30;99.90;;;;;;5048588;28;20044;-67
2023/08/12 00:18:56;;;;;;;2.42;1.13;;;18.30;99.90;;;;;;5048572;28;20421;-67
2023/08/12 00:21:22;;;;;;;5.32;1.15;;;18.30;99.90;;;;;;5042004;28;20486;-66
2023/08/12 00:23:49;;;;;;;2.65;1.08;;;18.30;99.90;;;;;;5029664;28;20048;-66
2023/08/12 00:26:15;;;;;;;3.55;1.10;;;18.30;99.90;;;;;;5029487;28;20413;-66
2023/08/12 00:28:41;;;;;;;2.60;1.05;;;18.30;99.90;;;;;;5027649;28;20049;-67
2023/08/12 00:31:07;;;;;;;2.90;0.80;;;18.30;99.90;;;;;;5040773;28;20048;-67
2023/08/12 00:33:33;;;;;;;2.63;1.33;;;18.20;99.90;;;;;;5048453;28;20049;-67
2023/08/12 00:35:59;;;;;;;2.40;0.98;;;18.20;99.90;;;;;;5067641;28;20388;-67
2023/08/12 00:38:24;;;;;;;2.58;0.70;;;18.20;99.90;;;;;;5069619;28;20049;-67
2023/08/12 00:40:50;;;;;;;4.32;1.35;;;18.20;99.90;;;;;;5069600;28;20040;-67
2023/08/12 00:43:16;;;;;;;5.07;1.35;;;18.20;99.90;;;;;;5068785;28;20044;-67
2023/08/12 00:45:42;;;;;;;2.55;1.15;;;18.20;99.90;;;;;;5068152;28;20404;-68
2023/08/12 00:48:09;;;;;;;4.28;1.20;;;18.20;99.90;;;;;;5040786;28;20045;-67
2023/08/12 00:50:37;;;;;;;4.43;1.95;;;18.30;99.90;;;;;;5048774;28;20041;-68
2023/08/12 00:53:05;;;;;;;3.47;1.77;;;18.30;99.90;;;;;;5035546;28;20050;-67
2023/08/12 00:55:33;;;;;;;2.70;1.80;;;18.30;99.90;;;;;;5032322;28;20655;-66
2023/08/12 00:57:59;;;;;;;3.13;1.23;;;18.30;99.90;;;;;;5031617;28;20047;-67
2023/08/12 01:00:25;;;;;;;3.78;1.73;;;18.30;99.90;;;;;;5064902;28;20049;-66
2023/08/12 01:02:52;;;;;;;6.30;1.77;;;18.30;99.90;;;;;;5071713;28;20109;-66
2023/08/12 01:05:19;;;;;;;2.58;1.15;;;18.30;99.90;;;;;;5071672;28;20075;-67
2023/08/12 01:07:46;;;;;;;4.72;1.40;;;18.30;99.90;;;;;;5072805;28;20037;-67
2023/08/12 01:10:16;;;;;;;2.10;1.00;;;18.30;99.90;;;;;;5064301;28;20048;-67
2023/08/12 01:13:04;;;;;;;2.50;1.35;;;18.30;99.90;;;;;;5052587;28;20048;-67
2023/08/12 01:15:31;;;;;;;2.75;1.02;;;18.30;99.90;;;;;;5051232;28;20525;-68
2023/08/12 01:18:00;;;;;;;6.18;1.70;;;18.30;99.90;;;;;;5043280;28;20382;-67
2023/08/12 01:20:27;;;;;;;5.15;1.50;;;18.30;99.90;;;;;;5032669;28;20045;-67
2023/08/12 01:23:16;;;;;;;5.88;1.58;;;18.30;99.90;;;;;;5031219;28;20460;-67
2023/08/12 01:25:43;;;;;;;2.90;1.23;;;18.30;99.90;;;;;;5051098;28;20056;-67
2023/08/12 01:28:09;;;;;;;5.75;1.42;;;18.20;99.90;;;;;;5052067;28;20087;-67
2023/08/12 01:30:55;;;;;;;5.10;1.92;;;18.20;99.90;;;;;;5051605;28;20056;-67
2023/08/12 01:33:46;;;;;;;2.47;1.33;;;18.20;99.90;;;;;;5050754;28;20045;-67
2023/08/12 01:36:17;;;;;;;3.92;1.30;;;18.20;99.90;;;;;;5050689;28;20049;-67
2023/08/12 01:38:43;;;;;;;4.07;1.60;;;18.10;99.90;;;;;;5050363;28;20045;-67
2023/08/12 01:41:12;;;;;;;4.07;1.92;;;18.10;99.90;;;;;;5052229;28;20068;-67
2023/08/12 01:43:39;;;;;;;4.25;1.73;;;18.20;99.90;;;;;;5052088;28;20124;-67
2023/08/12 01:46:05;;;;;;;3.70;1.95;;;18.10;99.90;;;;;;5050058;28;20500;-67
2023/08/12 01:48:31;;;;;;;5.95;1.58;;;18.10;99.90;;;;;;5051883;28;20393;-65
2023/08/12 01:50:57;;;;;;;4.90;1.27;;;18.10;99.90;;;;;;5051931;28;20037;-66
2023/08/12 01:53:23;;;;;;;4.57;2.33;;;18.00;99.90;;;;;;5050932;28;20040;-66
2023/08/12 01:55:51;;;;;;;3.47;1.70;;;18.00;99.90;;;;;;5050605;28;20122;-67
2023/08/12 01:58:17;;;;;;;2.97;1.33;;;18.00;99.90;;;;;;5049999;28;20041;-66
2023/08/12 02:00:43;;;;;;;6.25;1.60;;;18.00;99.90;;;;;;5068101;28;20043;-67
2023/08/12 02:03:09;;;;;;;3.17;1.58;;;18.00;99.90;;;;;;5069332;28;20067;-65
2023/08/12 02:05:37;;;;;;;3.22;1.65;;;18.00;99.90;;;;;;5069877;28;20045;-67
2023/08/12 02:08:04;;;;;;;3.58;1.52;;;18.00;99.90;;;;;;5070171;28;20041;-66
2023/08/12 02:10:30;;;;;;;5.47;1.20;;;17.90;99.90;;;;;;5061132;28;20067;-65
2023/08/12 02:12:56;;;;;;;4.45;1.67;;;17.90;99.90;;;;;;5050433;28;20041;-67
2023/08/12 02:15:22;;;;;;;3.38;1.63;;;17.80;99.90;;;;;;5033206;28;20457;-66
2023/08/12 02:17:48;;;;;;;3.83;1.67;;;17.90;99.90;;;;;;5031887;28;20034;-65
2023/08/12 02:20:14;;;;;;;4.03;1.48;;;17.90;99.90;;;;;;5030998;28;20504;-66
2023/08/12 02:22:40;;;;;;;2.55;1.55;;;17.90;99.90;;;;;;5034651;28;20496;-65
2023/08/12 02:25:06;;;;;;;6.75;1.67;;;17.90;99.90;;;;;;5033532;28;20037;-67
2023/08/12 02:27:32;;;;;;;4.18;1.88;;;17.90;99.90;;;;;;5050689;28;20056;-67
2023/08/12 02:29:58;;;;;;;3.17;1.48;;;17.90;99.90;;;;;;5049721;28;20781;-66
2023/08/12 02:32:24;;;;;;;2.92;1.60;;;17.90;99.90;;;;;;5051059;28;20055;-67
2023/08/12 02:34:50;;;;;;;3.92;1.77;;;17.90;99.90;;;;;;5050569;28;20039;-66
2023/08/12 02:37:16;;;;;;;3.88;1.85;;;17.90;99.90;;;;;;5049847;28;20053;-66
2023/08/12 02:39:42;;;;;;;4.60;1.48;;;17.90;99.90;;;;;;5050934;28;20104;-65
2023/08/12 02:42:13;;;;;;;4.32;2.10;;;17.90;99.90;;;;;;5049012;28;20085;-65
2023/08/12 02:44:39;;;;;;;3.67;1.85;;;18.00;99.90;;;;;;5049580;28;20037;-67
2023/08/12 02:47:05;;;;;;;5.97;1.90;;;18.00;99.90;;;;;;5050375;28;20179;-66
2023/08/12 02:49:31;;;;;;;3.78;1.92;;;18.00;99.90;;;;;;5049060;28;20071;-65
2023/08/12 02:51:57;;;;;;;3.55;1.92;;;18.00;99.90;;;;;;5040247;28;20053;-66
2023/08/12 02:54:23;;;;;;;2.67;1.60;;;18.00;99.90;;;;;;5030212;28;20060;-66
2023/08/12 02:56:50;;;;;;;3.65;1.90;;;18.00;99.90;;;;;;5029498;28;20057;-67
2023/08/12 02:59:16;;;;;;;5.40;1.63;;;18.10;99.90;;;;;;5024756;28;20041;-65
2023/08/12 03:01:42;;;;;;;5.38;1.80;;;18.10;99.90;;;;;;5068427;28;20051;-65
2023/08/12 03:04:08;;;;;;;3.05;1.52;;;18.20;99.90;;;;;;5069187;28;20097;-66
2023/08/12 03:06:34;;;;;;;3.75;1.80;;;18.20;99.90;;;;;;5062810;28;20033;-65
2023/08/12 03:09:00;;;;;;;3.10;1.65;;;18.20;99.90;;;;;;5049756;28;20033;-64
2023/08/12 03:11:26;;;;;;;3.53;1.52;;;18.20;99.90;;;;;;5049108;28;20037;-65
2023/08/12 03:13:53;;;;;;;2.80;1.23;;;18.20;99.90;;;;;;5048985;28;20502;-64
2023/08/12 03:16:19;;;;;;;5.60;2.33;;;18.20;99.90;;;;;;5049692;28;20040;-66
2023/08/12 03:18:45;;;;;;;4.35;1.85;;;18.30;99.90;;;;;;5028886;28;20121;-64
2023/08/12 03:21:11;;;;;;;5.90;2.35;;;18.30;99.90;;;;;;5030137;28;20034;-65
2023/08/12 03:23:38;;;;;;;4.05;1.75;;;18.30;99.90;;;;;;5029470;28;20053;-66
2023/08/12 03:26:04;;;;;;;3.85;1.67;;;18.30;99.90;;;;;;5030424;28;20052;-66
2023/08/12 03:28:31;;;;;;;3.53;1.92;;;18.30;99.90;;;;;;5029208;28;20120;-67
2023/08/12 03:30:57;;;;;;;5.85;1.63;;;18.30;99.90;;;;;;5046529;28;20404;-66
2023/08/12 03:33:22;;;;;;;5.70;1.67;;;18.40;99.90;;;;;;5070329;28;20048;-64
2023/08/12 03:35:49;;;;;;;3.88;1.58;;;18.40;99.90;;;;;;5070240;28;20040;-65
2023/08/12 03:38:15;;;;;;;4.57;2.05;;;18.30;99.90;;;;;;5068050;28;20036;-65
2023/08/12 03:40:42;;;;;;;3.88;1.42;;;18.40;99.90;;;;;;5052055;28;20044;-65
2023/08/12 03:43:08;;;;;;;2.95;1.65;;;18.40;99.90;;;;;;5052068;28;20048;-64
2023/08/12 03:45:44;;;;;;;3.45;1.55;;;18.40;99.90;;;;;;5069538;28;20041;-65
2023/08/12 03:48:10;;;;;;;3.38;1.85;;;18.40;99.90;;;;;;5051217;28;20033;-65
2023/08/12 03:50:38;;;;;;;2.88;1.20;;;18.40;99.90;;;;;;5011526;28;20045;-65
2023/08/12 03:53:04;;;;;;;4.03;1.50;;;18.40;99.90;;;;;;5028531;28;20041;-66
2023/08/12 03:55:32;;;;;;;3.47;2.25;;;18.50;99.90;;;;;;5028334;28;20061;-66
2023/08/12 03:57:59;;;;;;;5.25;1.88;;;18.50;99.90;;;;;;5029372;28;20051;-66
2023/08/12 04:00:24;;;;;;;2.92;1.65;;;18.50;99.90;;;;;;5059288;28;20055;-65
2023/08/12 04:02:50;;;;;;;2.85;1.95;;;18.50;99.90;;;;;;5048369;28;20052;-67
2023/08/12 04:05:16;;;;;;;4.57;1.55;;;18.60;99.90;;;;;;5049179;28;20033;-66
2023/08/12 04:07:42;;;;;;;5.25;1.98;;;18.60;99.90;;;;;;5048267;28;20127;-67
2023/08/12 04:10:09;;;;;;;4.35;1.83;;;18.60;99.90;;;;;;5048542;28;20048;-66
2023/08/12 04:12:35;;;;;;;4.25;1.23;;;18.60;99.90;;;;;;5047758;28;20052;-65
2023/08/12 04:15:04;;;;;;;3.75;1.58;;;18.60;99.90;;;;;;5044702;28;20041;-67
2023/08/12 04:17:30;;;;;;;4.57;2.27;;;18.70;99.90;;;;;;5029818;28;20121;-66
2023/08/12 04:19:56;;;;;;;4.47;1.88;;;18.70;99.90;;;;;;5029029;28;20033;-66
2023/08/12 04:22:23;;;;;;;4.10;2.17;;;18.70;99.90;;;;;;5041845;28;20041;-66
2023/08/12 04:24:49;;;;;;;4.00;2.15;;;18.70;99.90;;;;;;5048688;28;20049;-66
2023/08/12 04:27:16;;;;;;;3.63;1.80;;;18.80;99.90;;;;;;5051407;28;20041;-65
2023/08/12 04:29:43;;;;;;;3.83;1.80;;;18.70;99.90;;;;;;5053138;28;20098;-67
2023/08/12 04:32:09;;;;;;;5.78;1.83;;;18.70;99.90;;;;;;5052299;28;20059;-66
2023/08/12 04:34:34;;;;;;;4.25;1.73;;;18.80;99.90;;;;;;5051260;28;20465;-66
2023/08/12 04:37:00;;;;;;;5.30;1.63;;;18.80;99.90;;;;;;5053341;28;20037;-67
2023/08/12 04:39:26;;;;;;;5.60;2.22;;;18.80;99.90;;;;;;5052931;28;20033;-67
2023/08/12 04:41:52;;;;;;;3.83;1.92;;;18.80;99.90;;;;;;5051866;28;20095;-67
2023/08/12 04:44:18;;;;;;;3.75;2.10;;;18.80;99.90;;;;;;5047162;28;20034;-66
2023/08/12 04:46:44;;;;;;;4.30;1.50;;;18.80;99.90;;;;;;5031536;28;20056;-66
2023/08/12 04:49:10;;;;;;;4.20;1.85;;;18.80;99.90;;;;;;5051671;28;20524;-67
2023/08/12 04:51:36;;;;;;;7.63;2.00;;;18.80;99.90;;;;;;5051624;28;20497;-64
2023/08/12 04:54:03;;;;;;;5.07;2.10;;;18.90;99.90;;;;;;5050907;28;20068;-66
2023/08/12 04:56:31;;;;;;;4.82;2.30;;;18.90;99.90;;;;;;5052738;28;20089;-65
2023/08/12 04:58:57;;;;;;;3.33;2.15;;;18.90;99.90;;;;;;5055883;28;20129;-65
2023/08/12 05:01:23;;;;;;;5.78;1.90;;;18.90;99.90;;;;;;5072419;28;20473;-66
2023/08/12 05:03:49;;;;;;;4.38;2.55;;;19.00;99.90;;;;;;5071491;28;20524;-67
2023/08/12 05:06:15;;;;;;;3.35;1.58;;;19.00;99.90;;;;;;5066376;28;20094;-65
2023/08/12 05:08:41;;;;;;;4.05;1.73;;;19.10;99.90;;;;;;5052172;28;20070;-65
2023/08/12 05:11:07;;;;;;;4.10;2.03;;;19.10;99.90;;;;;;5048924;28;20048;-67
2023/08/12 05:13:33;;;;;;;3.75;2.22;;;19.20;99.90;;;;;;5031415;28;20045;-66
2023/08/12 05:15:59;;;;;;;6.18;2.92;;;19.20;99.90;;;;;;5031902;28;20064;-66
2023/08/12 05:18:26;;;;;;;7.38;3.17;;;19.30;99.90;;;;;;5032833;28;20780;-65
2023/08/12 05:20:53;;;;;;;3.33;1.67;;;19.30;99.90;;;;;;5032754;28;20449;-65
2023/08/12 05:23:21;;;;;;;5.97;2.00;;;19.30;99.90;;;;;;5031764;28;20477;-67
2023/08/12 05:25:47;;;;;;;6.47;2.33;;;19.30;99.90;;;;;;5014487;28;20045;-65
2023/08/12 05:28:13;;;;;;;4.03;2.00;;;19.30;99.90;;;;;;5037712;28;20045;-66
2023/08/12 05:30:38;;;;;;;4.68;2.17;;;19.30;99.90;;;;;;5050686;28;20056;-65
2023/08/12 05:33:05;;;;;;;5.18;2.03;;;19.30;99.90;;;;;;5052274;28;20493;-68
2023/08/12 05:35:35;;;;;;;7.88;2.75;;;19.30;99.90;;;;;;5038397;28;20551;-67
2023/08/12 05:38:02;;;;;;;5.75;3.03;;;19.40;99.90;;;;;;5030970;28;20500;-65
2023/08/12 05:40:28;;;;;;;5.85;2.05;;;19.40;99.90;;;;;;5025624;28;20037;-67
2023/08/12 05:42:54;;;;;;;6.90;3.03;;;19.40;99.90;;;;;;5031460;28;20465;-67
2023/08/12 05:45:20;;;;;;;5.30;2.53;;;19.50;99.90;;;;;;5044412;28;20049;-67
2023/08/12 05:47:46;;;;;;;7.85;2.95;;;19.50;99.90;;;;;;5057195;28;20037;-65
2023/08/12 05:50:12;;;;;;;7.68;3.03;;;19.60;99.90;;;;;;5049841;28;20124;-67
2023/08/12 05:52:38;;;;;;;9.00;3.05;;;19.60;99.90;;;;;;5050009;28;20041;-68
2023/08/12 05:55:05;;;;;;;7.13;2.53;;;19.60;99.90;;;;;;5050189;28;20060;-67
2023/08/12 05:57:31;;;;;;;7.25;3.17;;;19.60;99.90;;;;;;5049957;28;20417;-67
2023/08/12 05:59:57;;;;;;;6.05;3.20;;;19.70;99.90;;;;;;5063193;28;20055;-65
2023/08/12 06:02:23;;;;;;;4.25;2.50;;;19.70;99.90;;;;;;5066260;28;20041;-67
2023/08/12 06:04:49;;;;;;;4.32;2.78;;;19.70;99.90;;;;;;5049625;28;20687;-67
2023/08/12 06:07:15;;;;;;;6.38;2.83;;;19.70;99.90;;;;;;5048845;28;20674;-66
2023/08/12 06:09:41;;;;;;;6.03;2.95;;;19.70;99.90;;;;;;5033767;28;20563;-67
2023/08/12 06:12:07;;;;;;;5.55;3.08;;;19.70;99.90;;;;;;5049495;28;20036;-66
2023/08/12 06:14:35;;;;;;;8.57;2.95;;;19.70;99.90;;;;;;5051334;28;20047;-66
2023/08/12 06:17:01;;;;;;;7.05;3.17;;;19.70;99.90;;;;;;5033656;28;20037;-66
2023/08/12 06:19:27;;;;;;;6.82;3.75;;;19.70;99.90;;;;;;5049027;28;20492;-66
2023/08/12 06:21:53;;;;;;;7.72;3.33;;;19.70;99.90;;;;;;5029951;28;20045;-65
2023/08/12 06:24:18;;;;;;;13.52;4.57;;;19.70;99.90;;;;;;5030783;28;20509;-66
2023/08/12 06:26:45;;;;;;;6.15;3.22;;;19.70;99.90;;;;;;5040437;28;20033;-66
2023/08/12 06:29:11;;;;;;;6.43;3.13;;;19.70;99.90;;;;;;5068517;28;20480;-67
2023/08/12 06:31:36;;;;;;;6.40;3.47;;;19.70;99.90;;;;;;5068052;28;20032;-66
2023/08/12 06:34:03;;;;;;;7.07;3.70;;;19.70;99.90;;;;;;5069868;28;20048;-67
2023/08/12 06:36:29;;;;;;;7.28;3.83;;;19.70;99.90;;;;;;5060175;28;20347;-66
2023/08/12 06:38:55;;;;;;;6.03;3.83;;;19.70;99.90;;;;;;5029009;28;20042;-67
2023/08/12 06:41:20;;;;;;;10.60;4.40;;;19.70;99.90;;;;;;5028604;28;20095;-66
2023/08/12 06:43:46;;;;;;;6.97;3.70;;;19.70;99.90;;;;;;5029611;28;20126;-67
2023/08/12 06:46:12;;;;;;;9.43;3.72;;;19.70;99.90;;;;;;5029233;28;20099;-68
2023/08/12 06:48:39;;;;;;;8.88;3.78;;;19.80;99.90;;;;;;5043437;28;20036;-68
2023/08/12 06:51:10;;;;;;;8.60;3.28;;;19.80;99.90;;;;;;5049470;28;20059;-67
2023/08/12 06:53:37;;;;;;;8.43;3.53;;;19.80;99.90;;;;;;5048795;28;20131;-68
2023/08/12 06:56:03;;;;;;;7.43;3.60;;;19.90;99.90;;;;;;5048577;28;20045;-67
2023/08/12 06:58:29;;;;;;;8.48;3.53;;;19.90;99.90;;;;;;5048203;28;20103;-67
2023/08/12 07:00:55;;;;;;;7.28;3.47;;;20.00;99.90;;;;;;5050755;28;20036;-68
2023/08/12 07:03:22;;;;;;;10.32;3.63;;;19.90;99.90;;;;;;5056177;28;20076;-68
2023/08/12 07:05:48;;;;;;;7.10;3.55;;;20.00;99.90;;;;;;5029076;28;20033;-68
2023/08/12 07:08:14;;;;;;;7.50;3.38;;;20.00;99.90;;;;;;5028688;28;20391;-68
2023/08/12 07:10:41;;;;;;;7.07;3.00;;;20.00;99.90;;;;;;5039657;28;20037;-69
2023/08/12 07:13:07;;;;;;;12.10;4.15;;;20.00;99.90;;;;;;5048217;28;20048;-68
2023/08/12 07:15:33;;;;;;;9.18;3.10;;;20.10;99.90;;;;;;5048908;28;20384;-66
2023/08/12 07:17:59;;;;;;;7.03;3.42;;;20.10;99.90;;;;;;5048011;28;20489;-67
2023/08/12 07:20:25;;;;;;;5.72;3.45;;;20.10;99.90;;;;;;5049253;28;20033;-66
2023/08/12 07:22:51;;;;;;;9.30;4.13;;;20.10;99.90;;;;;;5047643;28;20417;-65
2023/08/12 07:25:17;;;;;;;7.10;3.58;;;20.20;99.90;;;;;;5049008;28;20535;-66
2023/08/12 07:27:44;;;;;;;9.45;4.07;;;20.20;99.90;;;;;;5048493;28;20041;-65
2023/08/12 07:30:10;;;;;;;8.27;3.65;;;20.20;99.90;;;;;;5047724;28;20484;-65
2023/08/12 07:32:37;;;;;;;7.78;3.58;;;20.20;99.90;;;;;;5046771;28;20040;-66
2023/08/12 07:35:05;;;;;;;10.80;3.67;;;20.20;99.90;;;;;;5027112;28;20049;-66
2023/08/12 07:37:31;;;;;;;6.43;3.38;;;20.30;99.90;;;;;;5029095;28;20038;-65
2023/08/12 07:39:58;;;;;;;11.93;4.53;;;20.30;99.90;;;;;;5027882;28;20045;-66
2023/08/12 07:42:24;;;;;;;6.53;3.60;;;20.30;99.90;;;;;;5028680;28;20124;-66
2023/08/12 07:44:50;;;;;;;8.73;4.65;;;20.30;99.90;;;;;;5028242;28;20060;-66
2023/08/12 07:47:15;;;;;;;8.18;4.25;;;20.30;99.90;;;;;;5030605;28;20037;-66
2023/08/12 07:49:43;;;;;;;8.02;4.38;;;20.20;99.90;;;;;;5046907;28;20124;-65
2023/08/12 07:52:09;;;;;;;11.70;4.40;;;20.20;99.90;;;;;;5048907;28;20044;-63
2023/08/12 07:54:35;;;;;;;8.95;5.13;;;20.20;99.90;;;;;;5047358;28;20053;-65
2023/08/12 07:57:02;;;;;;;14.00;4.38;;;20.10;99.90;;;;;;5046740;28;20559;-66
2023/08/12 07:59:28;;;;;;;11.32;4.65;;;20.10;99.90;;;;;;5054971;28;20523;-65
2023/08/12 08:01:54;;;;;;;9.75;4.47;;;20.00;99.90;;;;;;5053550;28;20036;-65
2023/08/12 08:04:20;;;;;;;11.27;4.28;;;20.00;99.90;;;;;;5032292;28;20455;-69
2023/08/12 08:06:45;;;;;;;9.20;4.07;;;20.00;99.90;;;;;;5032942;28;20044;-67
2023/08/12 08:09:11;;;;;;;11.32;4.00;;;20.00;99.90;;;;;;5031841;28;20068;-65
2023/08/12 08:11:37;;;;;;;9.40;5.57;;;19.90;99.90;;;;;;5050771;28;20041;-68
2023/08/12 08:14:03;;;;;;;9.73;4.00;;;19.80;99.90;;;;;;5051796;28;20501;-67
2023/08/12 08:16:29;;;;;;;12.93;4.78;;;19.80;99.90;;;;;;5048564;28;20082;-68
2023/08/12 08:18:55;;;;;;;9.90;4.75;;;19.80;99.90;;;;;;5051359;28;20045;-69
2023/08/12 08:21:20;;;;;;;7.22;3.72;;;19.70;99.90;;;;;;5052436;28;20033;-67
2023/08/12 08:23:46;;;;;;;10.77;5.05;;;19.70;99.90;;;;;;5039673;28;20103;-69
2023/08/12 08:26:13;;;;;;;14.23;4.70;;;19.70;99.90;;;;;;5031078;28;20045;-70
2023/08/12 08:28:39;;;;;;;11.73;4.97;;;19.70;99.90;;;;;;5034018;28;20126;-67
2023/08/12 08:31:04;;;;;;;10.40;4.80;;;19.70;99.90;;;;;;5031546;28;20077;-67
2023/08/12 08:33:30;;;;;;;9.45;4.53;;;19.70;99.90;;;;;;5039323;28;20041;-68
2023/08/12 08:35:56;;;;;;;9.00;3.85;;;19.70;99.90;;;;;;5051604;28;20056;-67
2023/08/12 08:38:21;;;;;;;10.90;5.07;;;19.70;99.90;;;;;;5051148;28;20037;-69
2023/08/12 08:40:50;;;;;;;8.27;4.53;;;19.80;99.90;;;;;;5050451;28;20117;-69
2023/08/12 08:43:21;;;;;;;12.80;5.50;;;19.80;99.90;;;;;;5044646;28;20590;-68
2023/08/12 08:45:52;;;;;;;9.10;3.90;;;19.80;99.90;;;;;;5038872;28;20056;-69
2023/08/12 08:48:19;;;;;;;8.20;4.82;;;19.80;99.90;;;;;;5043429;28;20084;-65
2023/08/12 08:50:45;;;;;;;7.40;3.75;;;19.80;99.90;;;;;;5049932;28;20137;-65
2023/08/12 08:53:12;;;;;;;8.57;4.47;;;19.80;99.90;;;;;;5033889;28;20049;-66
2023/08/12 08:55:40;;;;;;;7.07;4.13;;;19.80;99.90;;;;;;5031900;28;20033;-66
2023/08/12 08:58:06;;;;;;;8.40;4.10;;;19.80;99.90;;;;;;5049048;28;20051;-66
2023/08/12 09:00:32;;;;;;;5.65;3.35;;;19.80;99.90;;;;;;5062640;28;20041;-65
2023/08/12 09:02:58;;;;;;;7.35;4.13;;;19.80;99.90;;;;;;5042382;28;20056;-65
2023/08/12 09:05:26;;;;;;;5.35;2.97;;;19.80;99.90;;;;;;5046034;28;20059;-66
2023/08/12 09:07:54;;;;;;;6.22;3.08;;;19.80;99.90;;;;;;5049935;28;20121;-66
2023/08/12 09:10:21;;;;;;;7.18;3.13;;;19.70;99.90;;;;;;5043771;28;20042;-66
2023/08/12 09:12:47;;;;;;;6.40;2.97;;;19.70;99.90;;;;;;5043204;28;20178;-66
2023/08/12 09:15:15;;;;;;;5.18;2.78;;;19.80;99.90;;;;;;5049810;28;20091;-67
2023/08/12 09:17:42;;;;;;;7.00;3.08;;;19.80;99.90;;;;;;5051252;28;20045;-66
2023/08/12 09:20:11;;;;;;;4.55;2.42;;;19.80;99.90;;;;;;5050627;28;20052;-66
2023/08/12 09:22:39;;;;;;;7.13;2.60;;;19.80;99.90;;;;;;5053042;28;20045;-66
2023/08/12 09:25:06;;;;;;;5.95;2.75;;;19.80;99.90;;;;;;5064183;28;20037;-66
2023/08/12 09:27:33;;;;;;;4.07;2.30;;;19.80;99.90;;;;;;5031819;28;20080;-66
2023/08/12 09:30:02;;;;;;;5.40;2.17;;;19.80;99.90;;;;;;5050955;28;20029;-66
2023/08/12 09:32:28;;;;;;;;;;;19.80;99.90;;;;;;5050094;28;20040;-66
2023/08/12 09:34:54;;;;;;;;;;;19.80;99.90;;;;;;5032918;28;20410;-66
2023/08/12 09:37:21;;;;;;;;;;;19.80;99.90;;;;;;5050250;28;20392;-66
2023/08/12 09:39:48;;;;;;;;;;;19.80;99.90;;;;;;5044672;28;19923;-66
2023/08/12 09:42:16;;;;;;;;;;;19.80;99.90;;;;;;5040762;28;19982;-66
2023/08/12 09:44:43;;;;;;;;;;;19.80;99.90;;;;;;5049233;28;19917;-65
2023/08/12 09:47:09;;;;;;;;;;;19.80;99.90;;;;;;5051235;28;19927;-65
2023/08/12 09:49:35;;;;;;;;;;;19.80;99.90;;;;;;5050801;28;19917;-65
2023/08/12 09:52:02;;;;;;;;;;;19.80;99.90;;;;;;5050302;28;19955;-66
2023/08/12 09:54:28;;;;;;;;;;;19.80;99.90;;;;;;4989989;28;1238277;-65
2023/08/12 09:56:58;;;;;;;;;;;19.80;99.90;;;;;;5041875;28;20015;-66
2023/08/12 09:59:25;;;;;;;;;;;19.80;99.90;;;;;;5049958;28;19920;-66
2023/08/12 10:01:52;;;;;;;;;;;19.80;99.90;;;;;;5050150;28;19916;-66
2023/08/12 10:04:18;;;;;;;;;;;19.90;99.90;;;;;;5043468;28;20284;-66
2023/08/12 10:06:44;;;;;;;;;;;20.00;99.90;;;;;;5047326;28;19921;-66
2023/08/12 10:09:11;;;;;;;;;;;20.10;99.90;;;;;;5029958;28;20396;-66
2023/08/12 10:11:37;;;;;;;;;;;20.10;99.90;;;;;;5031808;28;19917;-66
2023/08/12 10:14:06;;;;;;;;;;;20.20;99.90;;;;;;5044924;28;20010;-66
2023/08/12 10:16:41;;;;;;;;;;;20.30;99.90;;;;;;5058725;28;19977;-68
2023/08/12 10:19:16;;;;;;;;;;;20.30;99.90;;;;;;5050142;28;19920;-66
2023/08/12 10:21:42;;;;;;;;;;;20.30;99.90;;;;;;5042309;28;19951;-66
2023/08/12 10:24:08;;;;;;;;;;;20.40;99.90;;;;;;5028341;28;19963;-67
2023/08/12 10:26:41;;;;;;;;;;;20.40;99.90;;;;;;5043019;28;19928;-67
2023/08/12 10:29:11;;;;;;;;;;;20.50;99.90;;;;;;5050283;28;20389;-67
2023/08/12 10:31:40;;;;;;;;;;;20.60;99.90;;;;;;5050050;28;20357;-68
2023/08/12 10:34:05;;;;;;;;;;;20.40;99.90;;;;;;5049471;28;20319;-69
2023/08/12 10:36:31;;;;;;;;;;;20.10;99.90;;;;;;5050192;28;19977;-69
2023/08/12 10:39:00;;;;;;;;;;;19.70;99.90;;;;;;5050758;28;20284;-68
2023/08/12 10:41:27;;;;;;;;;;;19.40;99.90;;;;;;5051289;28;19916;-69
2023/08/12 10:43:59;;;;;;;;;;;19.10;99.90;;;;;;5050968;28;20007;-69
2023/08/12 10:46:35;;;;;;;;;;;18.90;99.90;;;;;;5050376;28;19921;-69
2023/08/12 10:49:08;;;;;;;;;;;18.70;99.90;;;;;;5049805;28;19986;-69
2023/08/12 10:51:44;;;;;;;;;;;18.60;99.90;;;;;;5049496;28;19920;-69
2023/08/12 10:54:18;;;;;;;;;;;18.60;99.90;;;;;;5050953;28;19920;-68
2023/08/12 10:57:05;;;;;;;;;;;18.60;99.90;;;;;;5049738;28;19974;-68
2023/08/12 10:59:46;;;;;;;;;;;18.60;99.90;;;;;;5060393;28;19978;-68
2023/08/12 11:02:23;;;;;;;;;;;18.60;99.90;;;;;;5064841;28;19916;-68
2023/08/12 11:04:49;;;;;;;;;;;18.60;99.90;;;;;;5029175;28;20293;-68
2023/08/12 11:07:18;;;;;;;;;;;18.60;99.90;;;;;;5030726;28;20595;-67
2023/08/12 11:09:45;;;;;;;;;;;18.50;99.90;;;;;;5029825;28;19921;-68
2023/08/12 11:12:11;;;;;;;;;;;18.50;99.90;;;;;;5030510;28;19917;-67
2023/08/12 11:14:53;;;;;;;;;;;18.50;99.90;;;;;;5032486;28;19928;-67
2023/08/12 11:17:18;;;;;;;;;;;18.40;99.90;;;;;;5049992;28;19916;-67
2023/08/12 11:19:44;;;;;;;;;;;18.40;99.90;;;;;;5038621;28;19924;-67
2023/08/12 11:22:12;;;;;;;;;;;18.30;99.90;;;;;;5029751;28;20388;-68
2023/08/12 11:24:41;;;;;;;;;;;18.30;99.90;;;;;;5028614;28;20266;-68
2023/08/12 11:27:10;;;;;;;;;;;18.40;99.90;;;;;;5047539;28;19923;-69
2023/08/12 11:29:37;;;;;;;;;;;18.40;99.90;;;;;;5048537;28;19920;-68
2023/08/12 11:32:02;;;;;;;;;;;18.50;99.90;;;;;;5049987;28;19963;-68
2023/08/12 11:34:28;;;;;;;;;;;18.60;99.90;;;;;;5049234;28;20442;-68
2023/08/12 11:36:54;;;;;;;;;;;18.70;99.90;;;;;;5050057;28;20274;-67
2023/08/12 11:39:21;;;;;;;;;;;18.80;99.90;;;;;;5053990;28;20573;-67
2023/08/12 11:41:46;;;;;;;;;;;19.00;99.90;;;;;;5053997;28;20361;-67
2023/08/12 11:44:36;;;;;;;;;;;19.20;99.90;;;;;;5048984;28;19999;-67
2023/08/12 11:47:18;;;;;;;;;;;19.30;99.90;;;;;;5030566;28;20007;-67
2023/08/12 11:50:10;;;;;;;;;;;19.40;99.90;;;;;;5049712;28;20277;-66
2023/08/12 11:52:50;;;;;;;;;;;19.30;99.90;;;;;;5046073;28;20279;-66
2023/08/12 11:55:39;;;;;;;;;;;19.30;99.90;;;;;;5047991;28;20385;-66
2023/08/12 11:58:23;;;;;;;;;;;19.40;99.90;;;;;;5048432;28;20462;-67
2023/08/12 12:01:14;;;;;;;;;;;19.50;99.90;;;;;;5051593;28;19921;-66
2023/08/12 12:04:01;;;;;;;;;;;19.60;99.90;;;;;;5046764;28;19924;-67
2023/08/12 12:06:35;;;;;;;;;;;19.90;99.90;;;;;;5049776;28;19923;-67
2023/08/12 12:09:11;;;;;;;;;;;20.30;99.90;;;;;;5031282;28;19926;-67
2023/08/12 12:11:37;;;;;;;;;;;20.60;99.90;;;;;;5049026;28;19939;-68
2023/08/12 12:14:03;;;;;;;;;;;20.90;99.90;;;;;;5049623;28;20361;-68
2023/08/12 12:16:42;;;;;;;;;;;21.20;99.90;;;;;;5047984;28;20012;-68
2023/08/12 12:19:21;;;;;;;;;;;21.20;99.90;;;;;;5044029;28;19917;-69
2023/08/12 12:21:48;;;;;;;;;;;21.20;99.90;;;;;;5028120;28;19921;-68
2023/08/12 12:24:14;;;;;;;;;;;21.30;99.90;;;;;;5028511;28;19921;-69
2023/08/12 12:26:41;;;;;;;;;;;21.30;99.90;;;;;;5030641;28;19920;-70
2023/08/12 12:29:06;;;;;;;;;;;21.30;99.90;;;;;;5027929;28;19924;-68
2023/08/12 12:31:33;;;;;;;;;;;21.50;99.90;;;;;;5028466;28;19917;-69
2023/08/12 12:33:59;;;;;;;;;;;21.70;99.90;;;;;;5029814;28;20282;-68
2023/08/12 12:36:24;;;;;;;;;;;21.90;99.90;;;;;;5040517;28;20043;-69
2023/08/12 12:38:50;;;;;;;;;;;22.00;99.90;;;;;;5049857;28;20388;-69
2023/08/12 12:41:16;;;;;;;;;;;22.00;99.90;;;;;;5031445;28;19939;-70
2023/08/12 12:43:41;;;;;;;;;;;22.10;99.90;;;;;;5047035;28;20008;-68
2023/08/12 12:46:07;;;;;;;;;;;22.20;99.90;;;;;;5050510;28;19956;-71
2023/08/12 12:48:33;;;;;;;;;;;22.30;99.90;;;;;;5052036;28;19921;-70
2023/08/12 12:50:59;;;;;;;;;;;22.30;99.90;;;;;;5051676;28;20426;-71
2023/08/12 12:53:24;;;;;;;;;;;22.40;99.90;;;;;;5052092;28;20358;-70
2023/08/12 12:55:50;;;;;;;;;;;22.50;99.90;;;;;;5053419;28;19917;-72
2023/08/12 12:58:16;;;;;;;;;;;22.60;99.90;;;;;;5051236;28;19963;-71
2023/08/12 13:00:41;;;;;;;;;;;22.60;99.90;;;;;;5050263;28;19923;-69
2023/08/12 13:03:07;;;;;;;;;;;22.60;99.90;;;;;;5051426;28;19921;-72
2023/08/12 13:05:33;;;;;;;;;;;22.60;99.90;;;;;;5052806;28;20016;-72
2023/08/12 13:07:58;;;;;;;;;;;22.60;99.90;;;;;;5052207;28;19916;-72
2023/08/12 13:10:24;;;;;;;;;;;22.60;99.90;;;;;;5052852;28;19921;-72
2023/08/12 13:12:49;;;;;;;;;;;22.70;99.90;;;;;;5050906;28;20434;-72